createdAt,value
2022-08-10T00:00:51.710Z,282.46154
2022-08-10T00:05:53.503Z,300.06936
2022-08-10T00:10:55.134Z,302.13953
2022-08-10T00:15:56.910Z,292.0226
2022-08-10T00:20:58.388Z,302.13953
2022-08-10T00:26:00.049Z,306.35294
2022-08-10T00:31:02.127Z,310.66667
2022-08-10T00:36:03.583Z,308.49704
2022-08-10T00:41:05.001Z,308.49704
2022-08-10T00:46:06.623Z,312.86228
2022-08-10T00:51:08.090Z,319.60976
2022-08-10T00:57:17.110Z,321.91411
2022-08-10T01:02:20.294Z,326.6087
2022-08-10T01:07:22.118Z,349.26316
2022-08-10T01:12:39.595Z,357.42282
2022-08-10T01:17:50.678Z,360.21622
2022-08-10T01:22:52.902Z,360.21622
2022-08-10T01:27:54.484Z,360.21622
2022-08-10T01:32:56.142Z,365.91781
2022-08-10T01:37:57.833Z,393.63504
2022-08-10T01:42:59.812Z,403.70149
2022-08-10T01:48:16.516Z,425.25
2022-08-10T01:53:18.529Z,448.91803
2022-08-10T01:58:20.207Z,479.65217
2022-08-10T02:03:22.222Z,489.13274
2022-08-10T02:08:23.713Z,494
2022-08-10T02:13:25.356Z,494
2022-08-10T02:18:26.967Z,484.35088
2022-08-10T02:23:28.720Z,479.65217
2022-08-10T02:28:31.288Z,461.64706
2022-08-10T02:33:37.333Z,461.64706
2022-08-10T02:38:59.457Z,461.64706
2022-08-10T02:45:22.577Z,453.09091
2022-08-10T02:50:30.401Z,440.77419
2022-08-10T02:55:32.688Z,421.51938
2022-08-10T03:00:34.269Z,390.37681
2022-08-10T03:05:35.951Z,365.91781
2022-08-10T03:10:39.661Z,344
2022-08-10T03:15:41.290Z,338.87179
2022-08-10T03:20:42.873Z,331.42138
2022-08-10T03:25:53.197Z,336.35669
2022-08-10T03:30:56.072Z,326.6087
2022-08-10T03:36:42.184Z,329
2022-08-10T03:41:47.780Z,329
2022-08-10T03:46:55.238Z,336.35669
2022-08-10T03:51:56.796Z,338.87179
2022-08-10T03:56:58.407Z,360.21622
2022-08-10T04:02:45.531Z,363.04762
2022-08-10T04:07:49.844Z,368.82759
2022-08-10T04:12:51.511Z,377.80282
2022-08-10T04:18:02.575Z,390.37681
2022-08-10T04:23:07.699Z,403.70149
2022-08-10T04:28:09.334Z,403.70149
2022-08-10T04:33:10.772Z,410.66667
2022-08-10T04:38:12.619Z,410.66667
2022-08-10T04:43:14.083Z,396.94118
2022-08-10T04:48:41.576Z,396.94118
2022-08-10T04:54:03.846Z,377.80282
2022-08-10T04:59:08.518Z,396.94118
2022-08-10T05:04:36.588Z,400.2963
2022-08-10T05:10:02.067Z,396.94118
2022-08-10T05:15:07.473Z,380.87943
2022-08-10T05:20:09.020Z,360.21622
2022-08-10T05:25:10.550Z,341.41935
2022-08-10T05:30:12.082Z,326.6087
2022-08-10T05:35:13.586Z,329
2022-08-10T05:40:15.298Z,344
2022-08-10T05:45:16.948Z,321.91411
2022-08-10T05:50:18.447Z,302.13953
2022-08-10T05:55:20.158Z,302.13953
2022-08-10T06:00:36.825Z,319.60976
2022-08-10T06:05:40.488Z,346.61438
2022-08-10T06:12:16.429Z,346.61438
2022-08-10T06:17:28.492Z,365.91781
2022-08-10T06:22:30.033Z,390.37681
2022-08-10T06:27:34.613Z,393.63504
2022-08-10T06:32:37.053Z,396.94118
2022-08-10T06:37:38.646Z,390.37681
2022-08-10T06:42:40.421Z,387.16547
2022-08-10T06:47:41.839Z,414.22901
2022-08-10T06:52:43.496Z,417.84615
2022-08-10T06:57:45.258Z,403.70149
2022-08-10T07:03:01.822Z,444.81301
2022-08-10T07:08:08.998Z,461.64706
2022-08-10T07:13:10.702Z,489.13274
2022-08-10T07:18:12.154Z,498.95495
2022-08-10T07:23:58.479Z,514.37037
2022-08-10T07:29:02.359Z,542.05825
2022-08-10T07:34:03.802Z,644
2022-08-10T07:39:05.553Z,776.43243
2022-08-10T07:44:07.424Z,836.75362
2022-08-10T07:49:15.296Z,787.83562
2022-08-10T07:54:21.175Z,824
2022-08-10T07:59:22.617Z,811.60563
2022-08-10T08:04:24.081Z,799.55556
2022-08-10T08:09:25.565Z,921.77778
2022-08-10T08:14:27.218Z,953.83607
2022-08-10T08:19:37.145Z,970.66667
2022-08-10T08:24:43.025Z,1064
2022-08-10T08:29:44.792Z,1064
2022-08-10T08:34:46.228Z,1044
2022-08-10T08:39:47.920Z,1024.70175
2022-08-10T08:44:50.503Z,1128.61538
2022-08-10T08:50:08.087Z,1006.06897
2022-08-10T08:55:52.405Z,1151.84314
2022-08-10T09:01:06.930Z,1106.26415
2022-08-10T09:06:08.761Z,1151.84314
2022-08-10T09:11:10.296Z,1064
2022-08-10T09:16:12.724Z,1201.14286
2022-08-10T09:21:14.270Z,1254.6383
2022-08-10T09:26:15.715Z,1283.13043
2022-08-10T09:31:22.385Z,1283.13043
2022-08-10T09:36:32.240Z,1410.66667
2022-08-10T09:41:35.330Z,1312.88889
2022-08-10T09:46:37.969Z,1283.13043
2022-08-10T09:51:45.887Z,1283.13043
2022-08-10T09:56:48.079Z,1410.66667
2022-08-10T10:02:02.610Z,1254.6383
2022-08-10T10:07:05.553Z,1312.88889
2022-08-10T10:12:09.156Z,1344
2022-08-10T10:17:12.239Z,1283.13043
2022-08-10T10:22:13.679Z,1254.6383
2022-08-10T10:27:16.120Z,1254.6383
2022-08-10T10:32:18.142Z,1283.13043
2022-08-10T10:37:19.662Z,1227.33333
2022-08-10T10:42:42.421Z,1312.88889
2022-08-10T10:47:46.757Z,1283.13043
2022-08-10T10:52:48.431Z,1312.88889
2022-08-10T10:57:59.318Z,1376.55814
2022-08-10T11:03:02.536Z,1283.13043
2022-08-10T11:08:04.162Z,1312.88889
2022-08-10T11:14:26.038Z,1344
2022-08-10T11:20:02.123Z,1283.13043
2022-08-10T11:25:05.424Z,1312.88889
2022-08-10T11:30:07.107Z,1410.66667
2022-08-10T11:35:11.605Z,1227.33333
2022-08-10T11:40:14.283Z,1376.55814
2022-08-10T11:45:15.923Z,1376.55814
2022-08-10T11:50:17.585Z,1254.6383
2022-08-10T11:55:19.162Z,1176
2022-08-10T12:00:20.730Z,1312.88889
2022-08-10T12:05:23.869Z,1312.88889
2022-08-10T12:10:53.978Z,1283.13043
2022-08-10T12:15:55.436Z,1283.13043
2022-08-10T12:20:58.036Z,1376.55814
2022-08-10T12:25:59.615Z,1344
2022-08-10T12:31:01.207Z,1376.55814
2022-08-10T12:36:17.919Z,1283.13043
2022-08-10T12:41:43.658Z,1254.6383
2022-08-10T12:46:47.053Z,1254.6383
2022-08-10T12:51:49.528Z,1312.88889
2022-08-10T12:56:51.358Z,1410.66667
2022-08-10T13:02:06.793Z,1312.88889
2022-08-10T13:08:24.516Z,1312.88889
2022-08-10T13:13:28.927Z,1376.55814
2022-08-10T13:18:30.468Z,1410.66667
2022-08-10T13:23:32.322Z,1376.55814
2022-08-10T13:28:36.485Z,1376.55814
2022-08-10T13:34:40.943Z,1446.43902
2022-08-10T13:39:57.630Z,1376.55814
2022-08-10T13:45:01.591Z,1312.88889
2022-08-10T13:50:03.267Z,1410.66667
2022-08-10T13:55:07.034Z,1376.55814
2022-08-10T14:00:34.133Z,1410.66667
2022-08-10T14:05:38.940Z,1446.43902
2022-08-10T14:11:09.252Z,1446.43902
2022-08-10T14:16:12.878Z,1484
2022-08-10T14:21:14.331Z,1446.43902
2022-08-10T14:26:16.195Z,1410.66667
2022-08-10T14:31:21.597Z,1410.66667
2022-08-10T14:36:24.494Z,1376.55814
2022-08-10T14:42:00.829Z,1312.88889
2022-08-10T14:47:53.462Z,1446.43902
2022-08-10T14:53:01.299Z,1376.55814
2022-08-10T14:58:19.817Z,1344
2022-08-10T15:04:01.028Z,1201.14286
2022-08-10T15:09:04.680Z,1227.33333
2022-08-10T15:14:41.285Z,953.83607
2022-08-10T15:20:03.200Z,1024.70175
2022-08-10T15:25:19.337Z,891.69231
2022-08-10T15:30:29.767Z,863.40299
2022-08-10T15:35:32.045Z,970.66667
2022-08-10T15:40:49.689Z,863.40299
2022-08-10T15:45:53.597Z,652.04598
2022-08-10T15:50:55.149Z,677.33333
2022-08-10T15:55:56.623Z,704.49383
2022-08-10T16:00:59.551Z,668.70588
2022-08-10T16:06:03.257Z,620.92308
2022-08-10T16:11:05.215Z,606.36559
2022-08-10T16:16:06.824Z,585.66667
2022-08-10T16:21:08.370Z,572.57143
2022-08-10T16:26:15.074Z,542.05825
2022-08-10T16:31:19.398Z,547.92157
2022-08-10T16:36:20.982Z,599.31915
2022-08-10T16:42:03.177Z,579.05155
2022-08-10T16:47:07.250Z,566.22222
2022-08-10T16:52:08.813Z,566.22222
2022-08-10T16:57:10.399Z,566.22222
2022-08-10T17:02:12.185Z,566.22222
2022-08-10T17:07:13.690Z,547.92157
2022-08-10T17:12:15.352Z,585.66667
2022-08-10T17:17:16.875Z,686.16867
2022-08-10T17:22:18.432Z,560
2022-08-10T17:28:04.629Z,579.05155
2022-08-10T17:33:11.327Z,572.57143
2022-08-10T17:38:12.889Z,599.31915
2022-08-10T17:43:14.519Z,599.31915
2022-08-10T17:49:00.199Z,572.57143
2022-08-10T17:54:01.796Z,566.22222
2022-08-10T17:59:04.597Z,636.13483
2022-08-10T18:04:09.212Z,592.42105
2022-08-10T18:09:10.732Z,613.56522
2022-08-10T18:14:12.205Z,585.66667
2022-08-10T18:19:13.776Z,514.37037
2022-08-10T18:24:16.578Z,536.30769
2022-08-10T18:29:18.402Z,514.37037
2022-08-10T18:34:20.777Z,494
2022-08-10T18:39:22.335Z,421.51938
2022-08-10T18:44:23.878Z,432.88889
2022-08-10T18:49:25.456Z,368.82759
2022-08-10T18:54:38.926Z,363.04762
2022-08-10T19:00:04.002Z,368.82759
2022-08-10T19:05:31.415Z,357.42282
2022-08-10T19:10:33.527Z,357.42282
2022-08-10T19:15:35.951Z,363.04762
2022-08-10T19:20:37.531Z,380.87943
2022-08-10T19:26:41.038Z,393.63504
2022-08-10T19:31:45.091Z,407.15789
2022-08-10T19:36:46.737Z,440.77419
2022-08-10T19:41:48.498Z,440.77419
2022-08-10T19:46:56.422Z,436.8
2022-08-10T19:51:59.030Z,504
2022-08-10T19:57:07.659Z,457.33333
2022-08-10T20:02:11.110Z,475.03448
2022-08-10T20:07:15.252Z,425.25
2022-08-10T20:12:19.298Z,453.09091
2022-08-10T20:17:22.952Z,475.03448
2022-08-10T20:22:28.710Z,509.13761
2022-08-10T20:27:58.801Z,494
2022-08-10T20:33:02.742Z,489.13274
2022-08-10T20:38:05.144Z,498.95495
2022-08-10T20:43:06.920Z,484.35088
2022-08-10T20:48:08.405Z,484.35088
2022-08-10T20:53:09.986Z,484.35088
2022-08-10T20:58:11.813Z,484.35088
2022-08-10T21:03:15.957Z,498.95495
2022-08-10T21:08:23.255Z,519.70093
2022-08-10T21:13:24.729Z,536.30769
2022-08-10T21:18:26.158Z,553.90099
2022-08-10T21:23:30.653Z,542.05825
2022-08-10T21:28:32.630Z,553.90099
2022-08-10T21:33:34.189Z,553.90099
2022-08-10T21:38:35.878Z,547.92157
2022-08-10T21:43:44.595Z,547.92157
2022-08-10T21:48:57.149Z,542.05825
2022-08-10T22:36:28.478Z,579.05155
2022-08-10T22:41:30.010Z,592.42105
2022-08-10T22:46:31.578Z,579.05155
2022-08-10T22:51:33.319Z,592.42105
2022-08-10T22:56:34.799Z,585.66667
2022-08-10T23:01:36.315Z,592.42105
2022-08-10T23:06:38.089Z,585.66667
2022-08-10T23:11:39.560Z,599.31915
2022-08-10T23:16:41.000Z,566.22222
2022-08-10T23:22:02.894Z,542.05825
2022-08-10T23:27:10.291Z,525.13208
2022-08-10T23:32:14.524Z,504
2022-08-10T23:37:16.323Z,519.70093
2022-08-10T23:42:17.948Z,509.13761
2022-08-10T23:47:19.655Z,509.13761
2022-08-10T23:52:21.455Z,509.13761
2022-08-10T23:57:22.981Z,514.37037
